Valley Peak, Santa Cruz Island Reserve, California Weather observations

Data are for 10 minute period ending at time listed.
 Day   Time   Solar   Ave.   Ave.  Ave.  Vector  Max.   Baro.   Total    
  of    of     Rad.   Air    Rel.  Wind   Wind   Wind  Press.  Precip.   
Year   Day            Temp.  Hum.  Speed  Dir.   Gust                    
2014   (PST)  Kw/m2    F      %     mph   deg.    mph    mb.     in.     
-------------------------------------------------------------------------
 294   13:30   0.36   75.7    47    4.5    87     7.3   962.5    0.00 
 294   13:40   0.60   76.4    50    4.4   134     8.6   962.3    0.00 
 294   13:50   0.59   78.6    47    4.4   122     9.7   962.3    0.00 
 294   14:00   0.56   79.3    46    4.4   119     8.1   962.2    0.00 
 294   14:10   0.53   79.1    44    2.9   101     6.8   962.3    0.00 
 294   14:20   0.50   80.0    44    3.0   127     6.9   962.3    0.00 
 294   14:30   0.47   79.1    46    3.6   165     8.3   962.3    0.00 
 294   14:40   0.45   77.7    50    3.9   149     8.0   962.1    0.00 
 294   14:50   0.42   77.7    49    5.1   158     9.0   962.0    0.00 
 294   15:00   0.39   77.2    48    3.8   145     7.3   961.9    0.00 
 294   15:10   0.36   77.2    47    4.6   146     9.1   961.9    0.00 
 294   15:20   0.33   76.7    47    4.0   166     6.9   961.9    0.00 
 294   15:30   0.29   75.5    49    4.2   165     7.3   961.8    0.00 
 294   15:40   0.26   75.3    49    4.3   176     6.8   961.8    0.00 
 294   15:50   0.23   74.3    51    3.8   164     7.0   961.7    0.00 
 294   16:00   0.20   73.2    53    4.1   177     7.2   961.5    0.00 
 294   16:10   0.17   73.4    53    2.9   159     6.1   961.4    0.00 
 294   16:20   0.14   73.9    53    3.1   164     5.2   961.4    0.00 
 294   16:30   0.10   72.5    52    3.5   212     6.4   961.3    0.00 
 294   16:40   0.08   72.4    52    2.8   210     6.1   961.3    0.00 
 294   16:50   0.05   72.2    50    2.1   288     4.7   961.2    0.00 
 294   17:00   0.02   71.1    54    2.8   222     5.0   961.2    0.00 
 294   17:10   0.01   69.3    56    1.7   250     4.5   961.2    0.00 
 294   17:20   0.00   67.7    52    3.6   326     6.8   961.3    0.00 
 294   17:30   0.00   66.8    52    4.6   295     8.2   961.2    0.00 
 294   17:40   0.00   66.3    56    3.6   236     6.3   961.3    0.00 
 294   17:50   0.00   65.2    58    4.9   234     7.2   961.5    0.00 
 294   18:00   0.00   64.3    60    6.2   257    10.4   961.7    0.00 
 294   18:10   0.00   63.8    57    6.1   318     8.7   961.7    0.00 
 294   18:20   0.00   67.2    46    6.6   339     9.3   961.7    0.00 
 294   18:30   0.00   66.6    48    6.7   348    10.5   961.8    0.00 
 294   18:40   0.00   66.5    48   11.2   312    16.9   961.8    0.00 
 294   18:50   0.00   67.6    45   10.2   317    17.5   961.9    0.00 
 294   19:00   0.00   67.1    47   11.5   315    14.9   961.8    0.00 
 294   19:10   0.00   66.6    48   11.3   310    15.8   961.8    0.00 
 294   19:20   0.00   67.0    48    9.0   320    13.3   961.8    0.00 
 294   19:30   0.00   66.4    49    9.5   358    13.2   961.8    0.00 
 294   19:40   0.00   66.3    49    8.6   347    12.8   961.9    0.00 
 294   19:50   0.00   65.4    51    9.5   356    15.3   962.0    0.00 
 294   20:00   0.00   65.8    49   11.5   348    16.5   961.9    0.00 
 294   20:10   0.00   66.0    48    9.6   347    13.7   962.1    0.00 
 294   20:20   0.00   66.0    48    6.6   359    10.4   962.2    0.00 
 294   20:30   0.00   64.3    52    8.0    34    11.5   962.3    0.00 
 294   20:40   0.00   63.0    55   12.0    30    15.5   962.4    0.00 
 294   20:50   0.00   62.1    57   13.1    31    16.0   962.5    0.00 
 294   21:00   0.00   62.3    56   15.1    20    17.3   962.5    0.00 
 294   21:10   0.00   64.0    51   16.0     2    18.6   962.4    0.00 
 294   21:20   0.00   64.5    49   15.5     5    18.6   962.5    0.00 
 294   21:30   0.00   63.0    52   13.1    13    15.6   962.6    0.00 
 294   21:40   0.00   63.8    50   11.6    11    13.6   962.6    0.00 
 294   21:50   0.00   63.7    50   11.5     9    13.2   962.8    0.00 
 294   22:00   0.00   64.1    49   12.0    11    13.7   962.9    0.00 
 294   22:10   0.00   64.0    49   12.2    10    14.3   962.9    0.00 
 294   22:20   0.00   64.6    47   11.8    10    14.0   962.8    0.00 
 294   22:30   0.00   65.5    45   11.2   359    14.4   962.9    0.00 
 294   22:40   0.00   66.5    44   12.2   356    15.6   962.9    0.00 
 294   22:50   0.00   67.1    43   11.9     2    14.0   962.8    0.00 
 294   23:00   0.00   66.4    44   11.4     7    13.9   962.8    0.00 
 294   23:10   0.00   66.5    44   11.4     2    13.5   962.7    0.00 
 294   23:20   0.00   66.6    44   10.1   360    12.1   962.7    0.00 
 294   23:30   0.00   66.5    45    9.0   351    11.3   962.7    0.00 
 294   23:40   0.00   66.5    45    7.5     1     9.9   962.8    0.00 
 294   23:50   0.00   66.0    46    7.8    10     9.9   962.8    0.00 
 295    0:00   0.00   66.0    46    8.7     3    11.6   962.7    0.00 
 295    0:10   0.00   66.2    46    6.9     2     8.5   962.8    0.00 
 295    0:20   0.00   65.9    47    7.1   359     8.6   962.8    0.00 
 295    0:30   0.00   65.9    46    8.3   354    10.2   962.8    0.00 
 295    0:40   0.00   65.8    47    6.3    15     9.4   962.8    0.00 
 295    0:50   0.00   64.9    48    5.8    18     7.9   962.8    0.00 
 295    1:00   0.00   65.0    48    6.7    16     8.0   962.8    0.00 
 295    1:10   0.00   64.2    49    7.4    27     8.8   962.8    0.00 
 295    1:20   0.00   63.8    50    6.6    16     8.3   962.7    0.00 
 295    1:30   0.00   64.2    50    6.0     9     7.6   962.7    0.00 
 295    1:40   0.00   64.6    49    5.8   356     7.1   962.7    0.00 
 295    1:50   0.00   65.4    48    7.4   349     9.4   962.8    0.00 
 295    2:00   0.00   65.6    47    8.1   340     9.5   962.9    0.00 
 295    2:10   0.00   65.9    46    9.5   348    11.2   962.9    0.00 
 295    2:20   0.00   65.1    47    9.2   358    11.1   962.8    0.00 
 295    2:30   0.00   64.6    49    6.1    11     8.4   962.8    0.00 
 295    2:40   0.00   64.8    48    4.9    11     6.1   962.7    0.00 
 295    2:50   0.00   64.1    54    3.2    60     4.7   962.6    0.00 
 295    3:00   0.00   64.3    50    2.5    67     4.1   962.6    0.00 
 295    3:10   0.00   64.0    56    2.4    73     4.9   962.7    0.00 
 295    3:20   0.00   63.9    51    2.9    40     3.8   962.7    0.00 
 295    3:30   0.00   64.4    50    3.6    59     4.2   962.7    0.00 
 295    3:40   0.00   64.3    50    3.6    43     4.7   962.7    0.00 
 295    3:50   0.00   63.4    75    4.1   116     5.3   962.7    0.00 
 295    4:00   0.00   61.8    76    3.9    69     5.0   962.9    0.00 
 295    4:10   0.00   62.9    55    5.0     9     7.7   963.1    0.00 
 295    4:20   0.00   63.6    53    6.9     1     8.3   963.1    0.00 
 295    4:30   0.00   63.1    55    7.2    10     8.2   963.3    0.00 
 295    4:40   0.00   62.6    58    7.0    26     8.2   963.4    0.00 
 295    4:50   0.00   62.0    60    5.4    33     6.1   963.5    0.00 
 295    5:00   0.00   61.5    63    5.2    40     5.8   963.5    0.00 
 295    5:10   0.00   61.3    64    4.6    52     5.7   963.5    0.00 
 295    5:20   0.00   61.1    65    3.8    55     4.4   963.6    0.00 
 295    5:30   0.00   60.9    64    3.7    83     6.2   963.7    0.00 
 295    5:40   0.00   60.8    77    4.9   119     6.1   963.7    0.00 
 295    5:50   0.00   60.6    87    5.1   147     6.3   963.7    0.00 
 295    6:00   0.00   60.3    91    6.5   152     7.4   963.7    0.00 
 295    6:10   0.00   60.2    92    4.7   148     6.6   964.0    0.00 
 295    6:20   0.01   60.0    81    5.5   105     6.7   964.2    0.00 
 295    6:30   0.03   60.2    84    4.4    53     5.3   964.3    0.00 
 295    6:40   0.06   60.7    84    3.9    50     5.9   964.4    0.00 
 295    6:50   0.09   60.9    82    3.6    48     4.5   964.5    0.00 
 295    7:00   0.12   60.8    79    4.5    69     6.7   964.6    0.00 
 295    7:10   0.15   61.8    72    3.9    61     4.9   964.8    0.00 
 295    7:20   0.18   62.6    72    3.7    66     5.0   964.9    0.00 
 295    7:30   0.22   62.9    73    4.2    63     6.8   965.1    0.00 
 295    7:40   0.25   62.9    74    4.3    73     6.1   965.1    0.00 
 295    7:50   0.28   63.9    70    3.4    76     6.5   965.2    0.00 
 295    8:00   0.32   64.9    66    2.8   121     6.4   965.2    0.00 
 295    8:10   0.35   67.6    60    2.9   137     5.6   965.1    0.00 
 295    8:20   0.38   68.9    60    2.2   136     4.3   965.0    0.00 
 295    8:30   0.41   69.2    61    1.4   126     4.3   965.1    0.00 
 295    8:40   0.44   68.4    63    1.2    34     3.6   965.1    0.00 
 295    8:50   0.47   68.9    64    1.4    92     4.5   965.1    0.00 
 295    9:00   0.44   70.6    61    1.7    82     3.9   965.1    0.00 
 295    9:10   0.49   70.9    60    1.6    56     4.0   965.2    0.00 
 295    9:20   0.50   70.9    60    3.6    47     7.7   965.2    0.00 
 295    9:30   0.55   70.9    60    3.1    46     6.8   965.1    0.00 
 295    9:40   0.59   71.9    58    2.4    50     4.2   965.2    0.00 
 295    9:50   0.61   73.8    53    2.8    59     5.2   965.3    0.00 
 295   10:00   0.63   75.4    45    2.7    60     5.6   965.5    0.00 
 295   10:10   0.65   76.5    43    3.3    64     5.6   965.6    0.00 
 295   10:20   0.64   77.7    42    2.8    59     7.1   965.5    0.00 
 295   10:30   0.68   78.5    38    3.3    57     7.0   965.5    0.00 
 295   10:40   0.68   78.3    36    2.3    65     5.7   965.5    0.00 
 295   10:50   0.69   77.9    35    2.4    54     5.3   965.5    0.00 
 295   11:00   0.70   78.9    38    2.7    99     5.4   965.6    0.00 
 295   11:10   0.71   79.5    33    2.8    68     6.3   965.6    0.00 
 295   11:20   0.71   80.7    31    2.2    66     6.1   965.6    0.00 
 295   11:30   0.72   80.9    31    2.4    47     5.6   965.5    0.00 
 295   11:40   0.72   81.4    31    2.1    70     5.1   965.3    0.00 
 295   11:50   0.72   81.3    38    2.5   122     6.8   965.2    0.00 
 295   12:00   0.71   81.8    34    2.6    65     5.0   965.1    0.00 
 295   12:10   0.71   83.8    33    2.6    76     6.4   965.1    0.00 
 295   12:20   0.71   83.9    36    3.3    56     6.6   965.0    0.00 
 295   12:30   0.69   83.1    41    4.3    46     7.7   964.9    0.00 
 295   12:40   0.69   79.2    43    5.7    39     9.2   964.9    0.00 
 295   12:50   0.68   78.3    40    5.1    37     9.4   964.9    0.00 
 295   13:00   0.67   76.8    46    6.2    40    10.6   964.8    0.00 
 295   13:10   0.59   77.1    45    6.8    36    11.0   964.7    0.00 
 295   13:20   0.63   74.0    52    6.4    35     9.3   964.6    0.00 

Return to Valley Peak, Santa Cruz Island Reserve graphs page.


Western Regional Climate Center,wrcc@dri.edu